createdAt,value
2017-10-11T00:00:21.037Z,0
2017-10-11T00:01:22.913Z,0
2017-10-11T00:02:24.797Z,0
2017-10-11T00:03:26.675Z,0
2017-10-11T00:04:40.879Z,0
2017-10-11T00:05:42.762Z,0
2017-10-11T00:06:44.642Z,0
2017-10-11T00:07:46.520Z,0
2017-10-11T00:08:48.338Z,0
2017-10-11T00:09:50.156Z,0
2017-10-11T00:10:52.038Z,0
2017-10-11T00:11:53.916Z,0
2017-10-11T00:12:55.796Z,0
2017-10-11T00:14:10.001Z,0
2017-10-11T00:15:11.881Z,0
2017-10-11T00:16:13.762Z,0
2017-10-11T00:17:15.649Z,0
2017-10-11T00:18:17.460Z,0
2017-10-11T00:19:19.291Z,0
2017-10-11T00:20:21.174Z,0
2017-10-11T00:21:23.054Z,0
2017-10-11T00:22:24.944Z,0
2017-10-11T00:23:39.098Z,0
2017-10-11T00:24:40.987Z,0
2017-10-11T00:25:42.855Z,0
2017-10-11T00:26:44.732Z,0
2017-10-11T00:27:46.550Z,0
2017-10-11T00:28:48.369Z,0
2017-10-11T00:29:50.250Z,0
2017-10-11T00:30:52.130Z,0
2017-10-11T00:31:54.008Z,0
2017-10-11T00:33:08.160Z,0
2017-10-11T00:34:10.050Z,0
2017-10-11T00:35:11.930Z,0
2017-10-11T00:36:13.807Z,0
2017-10-11T00:37:15.636Z,0
2017-10-11T00:38:17.453Z,0
2017-10-11T00:39:19.342Z,0
2017-10-11T00:40:21.221Z,0
2017-10-11T00:41:23.099Z,0
2017-10-11T00:42:37.264Z,0
2017-10-11T00:43:39.143Z,0
2017-10-11T00:44:41.021Z,0
2017-10-11T00:45:42.907Z,0
2017-10-11T00:46:44.720Z,0
2017-10-11T00:47:46.537Z,0
2017-10-11T00:48:48.415Z,0
2017-10-11T00:49:50.296Z,0
2017-10-11T00:50:52.175Z,0
2017-10-11T00:52:06.327Z,0
2017-10-11T00:53:08.216Z,0
2017-10-11T00:54:10.095Z,0
2017-10-11T00:55:11.975Z,0
2017-10-11T00:56:13.811Z,0
2017-10-11T00:57:15.611Z,0
2017-10-11T00:58:17.489Z,0
2017-10-11T00:59:19.371Z,0
2017-10-11T01:00:21.249Z,0
2017-10-11T01:01:35.404Z,0
2017-10-11T01:02:37.285Z,0
2017-10-11T01:03:39.170Z,0
2017-10-11T01:04:41.044Z,0
2017-10-11T01:05:42.861Z,0
2017-10-11T01:06:44.678Z,0
2017-10-11T01:07:46.567Z,0
2017-10-11T01:08:48.446Z,0
2017-10-11T01:09:50.324Z,0
2017-10-11T01:11:04.478Z,0
2017-10-11T01:12:06.371Z,0
2017-10-11T01:13:08.250Z,0
2017-10-11T01:14:10.132Z,0
2017-10-11T01:15:11.949Z,0
2017-10-11T01:16:13.766Z,0
2017-10-11T01:17:15.648Z,0
2017-10-11T01:18:17.528Z,0
2017-10-11T01:19:19.408Z,0
2017-10-11T01:20:33.562Z,0
2017-10-11T01:21:35.441Z,0
2017-10-11T01:22:37.332Z,0
2017-10-11T01:23:39.211Z,0
2017-10-11T01:24:41.030Z,0
2017-10-11T01:25:42.850Z,0
2017-10-11T01:26:44.741Z,0
2017-10-11T01:27:46.622Z,0
2017-10-11T01:28:48.520Z,0
2017-10-11T01:30:02.667Z,0
2017-10-11T01:31:04.550Z,0
2017-10-11T01:32:06.433Z,0
2017-10-11T01:33:08.318Z,0
2017-10-11T01:34:10.137Z,0
2017-10-11T01:35:11.952Z,0
2017-10-11T01:36:13.833Z,0
2017-10-11T01:37:15.722Z,0
2017-10-11T01:38:17.604Z,0
2017-10-11T01:39:31.759Z,0
2017-10-11T01:40:33.639Z,0
2017-10-11T01:41:35.518Z,0
2017-10-11T01:42:37.410Z,0
2017-10-11T01:43:39.228Z,0
2017-10-11T01:44:41.046Z,0
2017-10-11T01:45:42.924Z,0
2017-10-11T01:46:44.816Z,0
2017-10-11T01:47:46.661Z,0
2017-10-11T01:49:00.861Z,0
2017-10-11T01:50:02.742Z,0
2017-10-11T01:51:04.625Z,0
2017-10-11T01:52:06.508Z,0
2017-10-11T01:53:08.327Z,0
2017-10-11T01:54:10.150Z,0
2017-10-11T01:55:12.035Z,0
2017-10-11T01:56:13.913Z,0
2017-10-11T01:57:15.796Z,0
2017-10-11T01:58:30.014Z,0
2017-10-11T01:59:31.889Z,0
2017-10-11T02:00:33.775Z,0
2017-10-11T02:01:35.655Z,0
2017-10-11T02:02:37.475Z,0
2017-10-11T02:03:39.295Z,0
2017-10-11T02:04:41.193Z,0
2017-10-11T02:05:43.055Z,0
2017-10-11T02:06:44.939Z,0
2017-10-11T02:07:59.088Z,0
2017-10-11T02:09:00.974Z,0
2017-10-11T02:10:02.856Z,0
2017-10-11T02:11:04.737Z,0
2017-10-11T02:12:06.565Z,0
2017-10-11T02:13:08.391Z,0
2017-10-11T02:14:10.272Z,0
2017-10-11T02:15:12.152Z,0
2017-10-11T02:16:14.034Z,0
2017-10-11T02:17:28.188Z,0
2017-10-11T02:18:30.072Z,0
2017-10-11T02:19:31.952Z,0
2017-10-11T02:20:33.833Z,0
2017-10-11T02:21:35.655Z,0
2017-10-11T02:22:37.466Z,0
2017-10-11T02:23:39.346Z,0
2017-10-11T02:24:41.227Z,0
2017-10-11T02:25:43.108Z,0
2017-10-11T02:26:57.264Z,0
2017-10-11T02:27:59.149Z,0
2017-10-11T02:29:01.026Z,0
2017-10-11T02:30:02.907Z,0
2017-10-11T02:31:04.727Z,0
2017-10-11T02:32:06.542Z,0
2017-10-11T02:33:08.423Z,0
2017-10-11T02:34:10.307Z,0
2017-10-11T02:35:12.192Z,0
2017-10-11T02:36:26.341Z,0
2017-10-11T02:37:28.219Z,0
2017-10-11T02:38:30.139Z,0
2017-10-11T02:39:32.050Z,0
2017-10-11T02:40:33.844Z,0
2017-10-11T02:41:35.679Z,0
2017-10-11T02:42:37.548Z,0
2017-10-11T02:43:39.430Z,0
2017-10-11T02:44:41.312Z,0
2017-10-11T02:45:55.464Z,0
2017-10-11T02:46:57.350Z,0
2017-10-11T02:47:59.228Z,0
2017-10-11T02:49:01.120Z,0
2017-10-11T02:50:02.939Z,0
2017-10-11T02:51:04.756Z,0
2017-10-11T02:52:06.639Z,0
2017-10-11T02:53:08.522Z,0
2017-10-11T02:54:10.403Z,0
2017-10-11T02:55:24.556Z,0
2017-10-11T02:56:26.437Z,0
2017-10-11T02:57:28.320Z,0
2017-10-11T02:58:30.201Z,0
2017-10-11T02:59:32.018Z,0
2017-10-11T03:00:33.833Z,0
2017-10-11T03:01:35.712Z,0
2017-10-11T03:02:37.595Z,0
2017-10-11T03:03:39.474Z,0
2017-10-11T03:04:53.630Z,0
2017-10-11T03:05:55.507Z,0
2017-10-11T03:06:57.388Z,0
2017-10-11T03:07:59.269Z,0
2017-10-11T03:09:01.088Z,0
2017-10-11T03:10:02.903Z,0
2017-10-11T03:11:04.783Z,0
2017-10-11T03:12:06.675Z,0
2017-10-11T03:13:08.558Z,0
2017-10-11T03:14:22.760Z,0
2017-10-11T03:15:24.638Z,0
2017-10-11T03:16:26.528Z,0
2017-10-11T03:17:28.406Z,0
2017-10-11T03:18:30.226Z,0
2017-10-11T03:19:32.042Z,0
2017-10-11T03:20:33.932Z,0
2017-10-11T03:21:35.813Z,0
2017-10-11T03:22:37.696Z,0
2017-10-11T03:23:51.897Z,0
2017-10-11T03:24:53.775Z,0
2017-10-11T03:25:55.666Z,0
2017-10-11T03:26:57.546Z,0
2017-10-11T03:27:59.374Z,0
2017-10-11T03:29:01.193Z,0
2017-10-11T03:30:03.075Z,0
2017-10-11T03:31:04.952Z,0
2017-10-11T03:32:06.841Z,0
2017-10-11T03:33:20.988Z,0
2017-10-11T03:34:22.866Z,0
2017-10-11T03:35:24.749Z,0
2017-10-11T03:36:26.628Z,0
2017-10-11T03:37:28.447Z,0
2017-10-11T03:38:30.263Z,0
2017-10-11T03:39:32.143Z,0
2017-10-11T03:40:34.028Z,0
2017-10-11T03:41:35.911Z,0
2017-10-11T03:42:50.061Z,0
2017-10-11T03:43:51.939Z,0
2017-10-11T03:44:53.831Z,0
2017-10-11T03:45:55.710Z,0
2017-10-11T03:46:57.528Z,0
2017-10-11T03:47:59.354Z,0
2017-10-11T03:49:01.237Z,0
2017-10-11T03:50:03.115Z,0
2017-10-11T03:51:05.005Z,0
2017-10-11T03:52:19.158Z,0
2017-10-11T03:53:21.036Z,0
2017-10-11T03:54:22.927Z,0
2017-10-11T03:55:24.805Z,0
2017-10-11T03:56:26.634Z,0
2017-10-11T03:57:28.460Z,0
2017-10-11T03:58:30.357Z,0
2017-10-11T03:59:32.231Z,0
2017-10-11T04:00:34.112Z,0
2017-10-11T04:01:48.265Z,0
2017-10-11T04:02:50.144Z,0
2017-10-11T04:03:52.027Z,0
2017-10-11T04:04:53.905Z,0
2017-10-11T04:05:55.723Z,0
2017-10-11T04:06:57.540Z,0
2017-10-11T04:07:59.420Z,0
2017-10-11T04:09:01.298Z,0
2017-10-11T04:10:03.175Z,0
2017-10-11T04:11:17.330Z,0
2017-10-11T04:12:19.209Z,0
2017-10-11T04:13:21.087Z,0
2017-10-11T04:14:22.975Z,0
2017-10-11T04:15:24.794Z,0
2017-10-11T04:16:26.610Z,0
2017-10-11T04:17:28.491Z,0
2017-10-11T04:18:30.371Z,0
2017-10-11T04:19:32.248Z,0
2017-10-11T04:20:46.404Z,0
2017-10-11T04:21:48.282Z,0
2017-10-11T04:22:50.161Z,0
2017-10-11T04:23:52.045Z,0
2017-10-11T04:24:53.871Z,0
2017-10-11T04:25:55.680Z,0
2017-10-11T04:26:57.558Z,0
2017-10-11T04:27:59.435Z,0
2017-10-11T04:29:01.324Z,0
2017-10-11T04:30:15.476Z,0
2017-10-11T04:31:17.356Z,0
2017-10-11T04:32:19.235Z,0
2017-10-11T04:33:21.115Z,0
2017-10-11T04:34:22.934Z,0
2017-10-11T04:35:24.750Z,0
2017-10-11T04:36:26.629Z,0
2017-10-11T04:37:28.508Z,0
2017-10-11T04:38:30.388Z,0
2017-10-11T04:39:44.542Z,0
2017-10-11T04:40:46.421Z,0
2017-10-11T04:41:48.310Z,0
2017-10-11T04:42:50.187Z,0
2017-10-11T04:43:52.008Z,0
2017-10-11T04:44:53.821Z,0
2017-10-11T04:45:55.698Z,0
2017-10-11T04:46:57.579Z,0
2017-10-11T04:47:59.457Z,0
2017-10-11T04:49:13.627Z,0
2017-10-11T04:50:15.504Z,0
2017-10-11T04:51:17.382Z,0
2017-10-11T04:52:19.259Z,0
2017-10-11T04:53:21.087Z,0
2017-10-11T04:54:22.903Z,0
2017-10-11T04:55:24.794Z,0
2017-10-11T04:56:26.689Z,0
2017-10-11T04:57:28.564Z,0
2017-10-11T04:58:42.719Z,0
2017-10-11T04:59:44.593Z,0
2017-10-11T05:00:46.473Z,0
2017-10-11T05:01:48.351Z,0
2017-10-11T05:02:50.170Z,0
2017-10-11T05:03:51.988Z,0
2017-10-11T05:04:53.868Z,0
2017-10-11T05:05:55.751Z,0
2017-10-11T05:06:57.633Z,0
2017-10-11T05:08:11.836Z,0
2017-10-11T05:09:13.714Z,0
2017-10-11T05:10:15.593Z,0
2017-10-11T05:11:17.483Z,0
2017-10-11T05:12:19.305Z,0
2017-10-11T05:13:21.132Z,0
2017-10-11T05:14:23.012Z,0
2017-10-11T05:15:24.890Z,0
2017-10-11T05:16:26.768Z,0
2017-10-11T05:17:40.974Z,0
2017-10-11T05:18:42.851Z,0
2017-10-11T05:19:44.730Z,0
2017-10-11T05:20:46.616Z,0
2017-10-11T05:21:48.427Z,0
2017-10-11T05:22:50.245Z,0
2017-10-11T05:23:52.122Z,5
2017-10-11T05:24:54.008Z,5
2017-10-11T05:25:55.886Z,5
2017-10-11T05:27:10.096Z,5
2017-10-11T05:28:11.970Z,5
2017-10-11T05:29:13.852Z,5
2017-10-11T05:30:15.731Z,5
2017-10-11T05:31:17.565Z,5
2017-10-11T05:32:19.381Z,5
2017-10-11T05:33:21.263Z,5
2017-10-11T05:34:23.141Z,5
2017-10-11T05:35:25.024Z,5
2017-10-11T05:36:39.180Z,5
2017-10-11T05:37:41.057Z,5
2017-10-11T05:38:42.947Z,5
2017-10-11T05:39:44.831Z,5
2017-10-11T05:40:46.649Z,10
2017-10-11T05:41:48.470Z,10
2017-10-11T05:42:50.361Z,10
2017-10-11T05:43:52.244Z,10
2017-10-11T05:44:54.127Z,10
2017-10-11T05:46:08.295Z,15
2017-10-11T05:47:10.176Z,15
2017-10-11T05:48:12.059Z,15
2017-10-11T05:49:13.940Z,15
2017-10-11T05:50:15.772Z,15
2017-10-11T05:51:17.589Z,20
2017-10-11T05:52:19.475Z,25
2017-10-11T05:53:21.357Z,30
2017-10-11T05:54:23.244Z,35
2017-10-11T05:55:37.394Z,40
2017-10-11T05:56:39.277Z,40
2017-10-11T05:57:41.157Z,45
2017-10-11T05:58:43.039Z,45
2017-10-11T05:59:44.863Z,50
2017-10-11T06:00:46.686Z,50
2017-10-11T06:01:48.572Z,60
2017-10-11T06:02:50.454Z,65
2017-10-11T06:03:52.340Z,70
2017-10-11T06:05:06.478Z,80
2017-10-11T06:06:08.369Z,80
2017-10-11T06:07:10.251Z,85
2017-10-11T06:08:12.137Z,95
2017-10-11T06:09:13.961Z,90
2017-10-11T06:10:15.786Z,95
2017-10-11T06:11:17.667Z,90
2017-10-11T06:12:19.559Z,90
2017-10-11T06:13:21.440Z,90
2017-10-11T06:14:35.598Z,85
2017-10-11T06:15:37.476Z,85
2017-10-11T06:16:39.359Z,85
2017-10-11T06:17:41.240Z,85
2017-10-11T06:18:43.063Z,85
2017-10-11T06:19:44.888Z,85
2017-10-11T06:20:46.781Z,90
2017-10-11T06:21:48.664Z,95
2017-10-11T06:22:50.550Z,100
2017-10-11T06:24:04.710Z,105
2017-10-11T06:25:06.602Z,105
2017-10-11T06:26:08.522Z,105
2017-10-11T06:27:10.430Z,105
2017-10-11T06:28:12.255Z,105
2017-10-11T06:29:14.079Z,100
2017-10-11T06:30:15.961Z,100
2017-10-11T06:31:17.845Z,100
2017-10-11T06:32:19.730Z,100
2017-10-11T06:33:33.888Z,100
2017-10-11T06:34:35.769Z,100
2017-10-11T06:35:37.657Z,105
2017-10-11T06:36:39.544Z,110
2017-10-11T06:37:41.366Z,110
2017-10-11T06:38:43.187Z,120
2017-10-11T06:39:45.082Z,125
2017-10-11T06:40:46.966Z,130
2017-10-11T06:41:48.860Z,130
2017-10-11T06:43:03.032Z,135
2017-10-11T06:44:04.919Z,135
2017-10-11T06:45:06.800Z,135
2017-10-11T06:46:08.690Z,140
2017-10-11T06:47:10.508Z,145
2017-10-11T06:48:12.331Z,150
2017-10-11T06:49:14.215Z,155
2017-10-11T06:50:16.097Z,160
2017-10-11T06:51:17.994Z,165
2017-10-11T06:52:32.134Z,170
2017-10-11T06:53:33.993Z,170
2017-10-11T06:54:35.873Z,170
2017-10-11T06:55:37.768Z,170
2017-10-11T06:56:39.627Z,170
2017-10-11T06:57:41.449Z,175
2017-10-11T06:58:43.287Z,175
2017-10-11T06:59:45.172Z,180
2017-10-11T07:00:47.055Z,180
2017-10-11T07:02:01.250Z,180
2017-10-11T07:03:03.133Z,175
2017-10-11T07:04:05.017Z,165
2017-10-11T07:05:06.902Z,170
2017-10-11T07:06:08.727Z,180
2017-10-11T07:07:10.549Z,185
2017-10-11T07:08:12.443Z,190
2017-10-11T07:09:14.327Z,195
2017-10-11T07:10:16.214Z,195
2017-10-11T07:11:30.389Z,195
2017-10-11T07:12:32.266Z,200
2017-10-11T07:13:34.633Z,200
2017-10-11T07:14:36.511Z,195
2017-10-11T07:15:38.371Z,200
2017-10-11T07:16:40.172Z,200
2017-10-11T07:17:42.061Z,200
2017-10-11T07:18:43.951Z,195
2017-10-11T07:19:45.837Z,195
2017-10-11T07:21:00.046Z,195
2017-10-11T07:22:01.929Z,205
2017-10-11T07:23:03.814Z,210
2017-10-11T07:24:05.695Z,215
2017-10-11T07:25:07.542Z,220
2017-10-11T07:26:09.355Z,225
2017-10-11T07:27:11.251Z,215
2017-10-11T07:28:13.131Z,195
2017-10-11T07:29:15.016Z,195
2017-10-11T07:30:29.176Z,210
2017-10-11T07:31:31.060Z,225
2017-10-11T07:32:32.947Z,240
2017-10-11T07:33:34.832Z,255
2017-10-11T07:34:36.658Z,265
2017-10-11T07:35:38.479Z,275
2017-10-11T07:36:40.376Z,280
2017-10-11T07:37:42.261Z,285
2017-10-11T07:38:44.149Z,290
2017-10-11T07:39:58.320Z,290
2017-10-11T07:41:00.204Z,280
2017-10-11T07:42:02.091Z,270
2017-10-11T07:43:03.978Z,270
2017-10-11T07:44:05.802Z,270
2017-10-11T07:45:07.637Z,260
2017-10-11T07:46:09.525Z,260
2017-10-11T07:47:11.411Z,260
2017-10-11T07:48:13.297Z,270
2017-10-11T07:49:27.460Z,285
2017-10-11T07:50:29.344Z,295
2017-10-11T07:51:31.241Z,325
2017-10-11T07:52:33.126Z,335
2017-10-11T07:53:34.956Z,335
2017-10-11T07:54:36.779Z,320
2017-10-11T07:55:38.674Z,310
2017-10-11T07:56:40.559Z,320
2017-10-11T07:57:42.443Z,335
2017-10-11T07:58:56.603Z,365
2017-10-11T07:59:58.491Z,395
2017-10-11T08:01:00.378Z,415
2017-10-11T08:02:02.263Z,415
2017-10-11T08:03:04.089Z,425
2017-10-11T08:04:05.926Z,410
2017-10-11T08:05:07.813Z,385
2017-10-11T08:06:09.699Z,360
2017-10-11T08:07:11.584Z,355
2017-10-11T08:08:25.795Z,360
2017-10-11T08:09:27.683Z,360
2017-10-11T08:10:29.567Z,355
2017-10-11T08:11:31.452Z,345
2017-10-11T08:12:33.292Z,340
2017-10-11T08:13:35.115Z,335
2017-10-11T08:14:36.999Z,330
2017-10-11T08:15:38.896Z,325
2017-10-11T08:16:40.781Z,315
2017-10-11T08:17:54.941Z,310
2017-10-11T08:18:56.827Z,305
2017-10-11T08:19:58.715Z,310
2017-10-11T08:21:00.600Z,315
2017-10-11T08:22:02.427Z,325
2017-10-11T08:23:04.249Z,335
2017-10-11T08:24:06.139Z,345
2017-10-11T08:25:08.023Z,360
2017-10-11T08:26:09.908Z,370
2017-10-11T08:27:24.074Z,380
2017-10-11T08:28:25.958Z,385
2017-10-11T08:29:27.845Z,400
2017-10-11T08:30:29.729Z,420
2017-10-11T08:31:31.565Z,420
2017-10-11T08:32:33.403Z,425
2017-10-11T08:33:35.291Z,425
2017-10-11T08:34:37.181Z,425
2017-10-11T08:35:39.069Z,440
2017-10-11T08:36:53.237Z,450
2017-10-11T08:37:55.122Z,465
2017-10-11T08:38:57.012Z,475
2017-10-11T08:39:58.903Z,485
2017-10-11T08:41:00.734Z,485
2017-10-11T08:42:02.561Z,485
2017-10-11T08:43:04.506Z,475
2017-10-11T08:44:06.468Z,455
2017-10-11T08:45:08.415Z,450
2017-10-11T08:46:22.579Z,445
2017-10-11T08:47:24.465Z,425
2017-10-11T08:48:26.353Z,410
2017-10-11T08:49:28.325Z,390
2017-10-11T08:50:30.140Z,375
2017-10-11T08:51:32.030Z,375
2017-10-11T08:52:33.987Z,380
2017-10-11T08:53:36.000Z,380
2017-10-11T08:54:37.959Z,380
2017-10-11T08:55:52.183Z,400
2017-10-11T08:56:54.112Z,410
2017-10-11T08:57:56.056Z,400
2017-10-11T08:58:57.980Z,395
2017-10-11T09:00:00.247Z,385
2017-10-11T09:01:02.205Z,380
2017-10-11T09:02:04.094Z,380
2017-10-11T09:03:05.979Z,380
2017-10-11T09:04:07.880Z,375
2017-10-11T09:05:22.068Z,380
2017-10-11T09:06:23.954Z,395
2017-10-11T09:07:25.851Z,405
2017-10-11T09:08:27.738Z,410
2017-10-11T09:09:29.570Z,425
2017-10-11T09:10:31.410Z,435
2017-10-11T09:11:33.288Z,430
2017-10-11T09:12:35.186Z,410
2017-10-11T09:13:37.087Z,390
2017-10-11T09:14:51.250Z,390
2017-10-11T09:15:53.167Z,390
2017-10-11T09:16:55.067Z,395
2017-10-11T09:17:56.952Z,400
2017-10-11T09:18:58.780Z,410
2017-10-11T09:20:00.604Z,415
2017-10-11T09:21:02.491Z,410
2017-10-11T09:22:04.374Z,405
2017-10-11T09:23:06.274Z,400
2017-10-11T09:24:20.444Z,420
2017-10-11T09:25:22.330Z,430
2017-10-11T09:26:24.219Z,450
2017-10-11T09:27:26.107Z,465
2017-10-11T09:28:27.935Z,475
2017-10-11T09:29:29.759Z,475
2017-10-11T09:30:31.650Z,460
2017-10-11T09:31:33.537Z,455
2017-10-11T09:32:35.427Z,460
2017-10-11T09:33:49.592Z,455
2017-10-11T09:34:51.482Z,460
2017-10-11T09:35:53.373Z,455
2017-10-11T09:36:55.261Z,445
2017-10-11T09:37:57.092Z,435
2017-10-11T09:38:58.924Z,425
2017-10-11T09:40:00.811Z,405
2017-10-11T09:41:02.697Z,410
2017-10-11T09:42:04.591Z,430
2017-10-11T09:43:18.763Z,450
2017-10-11T09:44:20.652Z,450
2017-10-11T09:45:22.540Z,430
2017-10-11T09:46:24.428Z,405
2017-10-11T09:47:26.261Z,385
2017-10-11T09:48:28.079Z,385
2017-10-11T09:49:29.965Z,390
2017-10-11T09:50:31.855Z,415
2017-10-11T09:51:33.745Z,430
2017-10-11T09:52:47.909Z,445
2017-10-11T09:53:49.798Z,445
2017-10-11T09:54:51.688Z,440
2017-10-11T09:55:53.574Z,435
2017-10-11T09:56:55.401Z,405
2017-10-11T09:57:57.238Z,390
2017-10-11T09:58:59.130Z,395
2017-10-11T10:00:01.015Z,390
2017-10-11T10:01:02.902Z,370
2017-10-11T10:02:17.065Z,360
2017-10-11T10:03:18.948Z,360
2017-10-11T10:04:20.845Z,345
2017-10-11T10:05:22.730Z,320
2017-10-11T10:06:24.566Z,345
2017-10-11T10:07:26.404Z,355
2017-10-11T10:08:28.290Z,355
2017-10-11T10:09:30.190Z,365
2017-10-11T10:10:32.085Z,410
2017-10-11T10:11:46.243Z,395
2017-10-11T10:12:48.134Z,430
2017-10-11T10:13:50.019Z,440
2017-10-11T10:14:51.908Z,445
2017-10-11T10:15:53.736Z,460
2017-10-11T10:16:55.564Z,450
2017-10-11T10:17:57.463Z,430
2017-10-11T10:18:59.350Z,400
2017-10-11T10:20:01.236Z,395
2017-10-11T10:21:15.400Z,390
2017-10-11T10:22:17.288Z,350
2017-10-11T10:23:19.175Z,305
2017-10-11T10:24:21.061Z,310
2017-10-11T10:25:22.899Z,335
2017-10-11T10:26:24.734Z,355
2017-10-11T10:27:26.621Z,350
2017-10-11T10:28:28.508Z,335
2017-10-11T10:29:30.394Z,320
2017-10-11T10:30:44.558Z,265
2017-10-11T10:31:46.445Z,260
2017-10-11T10:32:48.345Z,290
2017-10-11T10:33:50.262Z,335
2017-10-11T10:34:52.092Z,360
2017-10-11T10:35:53.939Z,385
2017-10-11T10:36:55.815Z,360
2017-10-11T10:37:57.711Z,315
2017-10-11T10:38:59.598Z,300
2017-10-11T10:40:13.806Z,310
2017-10-11T10:41:15.699Z,305
2017-10-11T10:42:17.582Z,305
2017-10-11T10:43:19.464Z,315
2017-10-11T10:44:21.293Z,340
2017-10-11T10:45:23.115Z,375
2017-10-11T10:46:25.014Z,400
2017-10-11T10:47:26.905Z,425
2017-10-11T10:48:28.795Z,425
2017-10-11T10:49:42.977Z,435
2017-10-11T10:50:44.843Z,430
2017-10-11T10:51:46.733Z,430
2017-10-11T10:52:48.621Z,415
2017-10-11T10:53:50.449Z,395
2017-10-11T10:54:52.273Z,370
2017-10-11T10:55:54.161Z,370
2017-10-11T10:56:56.050Z,385
2017-10-11T10:57:57.943Z,385
2017-10-11T10:59:12.098Z,375
2017-10-11T11:00:13.986Z,375
2017-10-11T11:01:15.872Z,375
2017-10-11T11:02:17.757Z,370
2017-10-11T11:03:19.586Z,360
2017-10-11T11:04:21.411Z,355
2017-10-11T11:05:23.299Z,345
2017-10-11T11:06:25.184Z,335
2017-10-11T11:07:27.070Z,330
2017-10-11T11:08:41.234Z,325
2017-10-11T11:09:43.121Z,325
2017-10-11T11:10:45.009Z,335
2017-10-11T11:11:46.896Z,335
2017-10-11T11:12:48.742Z,340
2017-10-11T11:13:50.560Z,335
2017-10-11T11:14:52.446Z,330
2017-10-11T11:15:54.333Z,315
2017-10-11T11:16:56.222Z,300
2017-10-11T11:18:10.400Z,295
2017-10-11T11:19:12.284Z,295
2017-10-11T11:20:14.170Z,300
2017-10-11T11:21:16.056Z,320
2017-10-11T11:22:17.893Z,355
2017-10-11T11:23:19.722Z,410
2017-10-11T11:24:21.609Z,390
2017-10-11T11:25:23.496Z,350
2017-10-11T11:26:25.381Z,340
2017-10-11T11:27:39.553Z,345
2017-10-11T11:28:41.438Z,385
2017-10-11T11:29:43.327Z,355
2017-10-11T11:30:45.213Z,355
2017-10-11T11:31:47.040Z,335
2017-10-11T11:32:48.878Z,335
2017-10-11T11:33:50.764Z,340
2017-10-11T11:34:52.652Z,335
2017-10-11T11:35:54.537Z,345
2017-10-11T11:37:08.700Z,370
2017-10-11T11:38:10.585Z,410
2017-10-11T11:39:12.484Z,415
2017-10-11T11:40:14.378Z,380
2017-10-11T11:41:16.199Z,355
2017-10-11T11:42:18.026Z,355
2017-10-11T11:43:19.914Z,380
2017-10-11T11:44:21.809Z,375
2017-10-11T11:45:23.696Z,370
2017-10-11T11:46:37.857Z,395
2017-10-11T11:47:39.741Z,410
2017-10-11T11:48:41.628Z,395
2017-10-11T11:49:43.515Z,370
2017-10-11T11:50:45.351Z,350
2017-10-11T11:51:47.178Z,355
2017-10-11T11:52:49.065Z,345
2017-10-11T11:53:50.954Z,340
2017-10-11T11:54:52.847Z,350
2017-10-11T11:56:07.012Z,370
2017-10-11T11:57:08.900Z,410
2017-10-11T11:58:10.788Z,445
2017-10-11T11:59:12.675Z,455
2017-10-11T12:00:14.502Z,450
2017-10-11T12:01:16.342Z,450
2017-10-11T12:02:18.232Z,460
2017-10-11T12:03:20.122Z,470
2017-10-11T12:04:22.010Z,480
2017-10-11T12:05:36.176Z,480
2017-10-11T12:06:38.064Z,480
2017-10-11T12:07:39.954Z,485
2017-10-11T12:08:41.841Z,470
2017-10-11T12:09:43.670Z,465
2017-10-11T12:10:45.494Z,470
2017-10-11T12:11:47.385Z,465
2017-10-11T12:12:49.267Z,445
2017-10-11T12:13:51.157Z,425
2017-10-11T12:15:05.331Z,415
2017-10-11T12:16:07.219Z,415
2017-10-11T12:17:09.107Z,425
2017-10-11T12:18:10.994Z,440
2017-10-11T12:19:12.824Z,480
2017-10-11T12:20:14.651Z,495
2017-10-11T12:21:16.539Z,490
2017-10-11T12:22:18.427Z,465
2017-10-11T12:23:20.316Z,445
2017-10-11T12:24:34.478Z,420
2017-10-11T12:25:36.367Z,400
2017-10-11T12:26:38.254Z,410
2017-10-11T12:27:40.141Z,400
2017-10-11T12:28:41.971Z,410
2017-10-11T12:29:43.809Z,420
2017-10-11T12:30:45.697Z,425
2017-10-11T12:31:47.591Z,415
2017-10-11T12:32:49.475Z,410
2017-10-11T12:34:03.642Z,410
2017-10-11T12:35:05.530Z,400
2017-10-11T12:36:07.417Z,400
2017-10-11T12:37:09.311Z,425
2017-10-11T12:38:11.133Z,450
2017-10-11T12:39:12.961Z,445
2017-10-11T12:40:14.849Z,430
2017-10-11T12:41:16.736Z,420
2017-10-11T12:42:18.623Z,395
2017-10-11T12:43:32.788Z,365
2017-10-11T12:44:34.675Z,370
2017-10-11T12:45:36.563Z,390
2017-10-11T12:46:38.452Z,410
2017-10-11T12:47:40.285Z,405
2017-10-11T12:48:42.110Z,400
2017-10-11T12:49:43.997Z,390
2017-10-11T12:50:45.885Z,385
2017-10-11T12:51:47.771Z,400
2017-10-11T12:53:01.938Z,405
2017-10-11T12:54:03.824Z,385
2017-10-11T12:55:05.716Z,360
2017-10-11T12:56:07.599Z,330
2017-10-11T12:57:09.426Z,310
2017-10-11T12:58:11.266Z,290
2017-10-11T12:59:13.156Z,285
2017-10-11T13:00:15.042Z,290
2017-10-11T13:01:16.927Z,295
2017-10-11T13:02:31.105Z,300
2017-10-11T13:03:32.991Z,310
2017-10-11T13:04:34.889Z,310
2017-10-11T13:05:36.776Z,310
2017-10-11T13:06:38.615Z,305
2017-10-11T13:07:40.439Z,305
2017-10-11T13:08:42.327Z,300
2017-10-11T13:09:44.216Z,295
2017-10-11T13:10:46.100Z,295
2017-10-11T13:12:00.277Z,290
2017-10-11T13:13:02.161Z,285
2017-10-11T13:14:04.047Z,285
2017-10-11T13:15:05.936Z,295
2017-10-11T13:16:07.766Z,305
2017-10-11T13:17:09.590Z,305
2017-10-11T13:18:11.489Z,300
2017-10-11T13:19:13.382Z,295
2017-10-11T13:20:15.270Z,290
2017-10-11T13:21:29.447Z,290
2017-10-11T13:22:31.330Z,290
2017-10-11T13:23:33.221Z,290
2017-10-11T13:24:35.108Z,275
2017-10-11T13:25:36.936Z,260
2017-10-11T13:26:38.761Z,250
2017-10-11T13:27:40.648Z,250
2017-10-11T13:28:42.536Z,265
2017-10-11T13:29:44.425Z,285
2017-10-11T13:30:58.591Z,310
2017-10-11T13:32:00.474Z,325
2017-10-11T13:33:02.363Z,340
2017-10-11T13:34:04.250Z,345
2017-10-11T13:35:06.079Z,325
2017-10-11T13:36:07.903Z,300
2017-10-11T13:37:09.802Z,285
2017-10-11T13:38:11.689Z,270
2017-10-11T13:39:13.578Z,250
2017-10-11T13:40:27.743Z,230
2017-10-11T13:41:29.628Z,215
2017-10-11T13:42:31.525Z,210
2017-10-11T13:43:33.414Z,210
2017-10-11T13:44:35.243Z,215
2017-10-11T13:45:37.067Z,220
2017-10-11T13:46:38.959Z,225
2017-10-11T13:47:40.844Z,230
2017-10-11T13:48:42.728Z,235
2017-10-11T13:49:56.892Z,240
2017-10-11T13:50:58.781Z,230
2017-10-11T13:52:00.669Z,225
2017-10-11T13:53:02.555Z,220
2017-10-11T13:54:04.383Z,220
2017-10-11T13:55:06.208Z,225
2017-10-11T13:56:08.096Z,225
2017-10-11T13:57:09.986Z,225
2017-10-11T13:58:11.877Z,230
2017-10-11T13:59:26.037Z,230
2017-10-11T14:00:27.923Z,225
2017-10-11T14:01:29.812Z,220
2017-10-11T14:02:31.703Z,225
2017-10-11T14:03:33.564Z,225
2017-10-11T14:04:35.380Z,220
2017-10-11T14:05:37.276Z,205
2017-10-11T14:06:39.152Z,190
2017-10-11T14:07:41.038Z,190
2017-10-11T14:08:55.202Z,185
2017-10-11T14:09:57.115Z,180
2017-10-11T14:10:59.004Z,185
2017-10-11T14:12:00.892Z,185
2017-10-11T14:13:02.717Z,190
2017-10-11T14:14:04.542Z,205
2017-10-11T14:15:06.431Z,210
2017-10-11T14:16:08.320Z,200
2017-10-11T14:17:10.203Z,185
2017-10-11T14:18:24.369Z,175
2017-10-11T14:19:26.253Z,170
2017-10-11T14:20:28.149Z,165
2017-10-11T14:21:30.040Z,165
2017-10-11T14:22:31.864Z,165
2017-10-11T14:23:33.703Z,165
2017-10-11T14:24:35.589Z,165
2017-10-11T14:25:37.478Z,170
2017-10-11T14:26:39.362Z,180
2017-10-11T14:27:53.528Z,185
2017-10-11T14:28:55.415Z,190
2017-10-11T14:29:57.301Z,190
2017-10-11T14:30:59.185Z,190
2017-10-11T14:32:01.022Z,185
2017-10-11T14:33:02.847Z,180
2017-10-11T14:34:04.732Z,180
2017-10-11T14:35:06.617Z,175
2017-10-11T14:36:08.508Z,170
2017-10-11T14:37:22.669Z,160
2017-10-11T14:38:24.556Z,160
2017-10-11T14:39:26.444Z,160
2017-10-11T14:40:28.328Z,155
2017-10-11T14:41:30.165Z,155
2017-10-11T14:42:31.991Z,160
2017-10-11T14:43:33.889Z,160
2017-10-11T14:44:35.785Z,160
2017-10-11T14:45:37.671Z,160
2017-10-11T14:46:51.831Z,160
2017-10-11T14:47:53.715Z,160
2017-10-11T14:48:55.613Z,160
2017-10-11T14:49:57.497Z,160
2017-10-11T14:50:59.341Z,160
2017-10-11T14:52:01.613Z,155
2017-10-11T14:53:03.789Z,155
2017-10-11T14:54:05.697Z,150
2017-10-11T14:55:07.923Z,145